createdAt,value
2018-05-08T00:00:26.818Z,38.20
2018-05-08T00:02:55.044Z,38.20
2018-05-08T00:05:28.368Z,38.10
2018-05-08T00:07:56.588Z,38.10
2018-05-08T00:10:24.835Z,38.10
2018-05-08T00:12:53.060Z,38.20
2018-05-08T00:15:21.328Z,38.70
2018-05-08T00:17:49.540Z,38.20
2018-05-08T00:20:17.870Z,38.20
2018-05-08T00:22:46.095Z,38.20
2018-05-08T00:25:14.343Z,38.20
2018-05-08T00:27:42.559Z,38.20
2018-05-08T00:30:10.810Z,38.20
2018-05-08T00:32:39.031Z,38.20
2018-05-08T00:35:08.040Z,38.30
2018-05-08T00:37:36.263Z,38.80
2018-05-08T00:40:04.484Z,38.20
2018-05-08T00:42:32.723Z,38.20
2018-05-08T00:45:00.945Z,38.20
2018-05-08T00:47:29.180Z,38.20
2018-05-08T00:49:57.399Z,38.20
2018-05-08T00:52:25.639Z,38.20
2018-05-08T00:55:05.722Z,38.20
2018-05-08T00:57:33.961Z,38.20
2018-05-08T01:00:02.172Z,38.20
2018-05-08T01:02:30.491Z,38.20
2018-05-08T01:04:58.802Z,38.20
2018-05-08T01:07:26.985Z,38.20
2018-05-08T01:09:55.198Z,38.20
2018-05-08T01:12:23.864Z,38.20
2018-05-08T01:14:52.079Z,38.30
2018-05-08T01:17:20.327Z,38.30
2018-05-08T01:19:48.551Z,38.30
2018-05-08T01:22:16.791Z,38.20
2018-05-08T01:24:45.008Z,38.20
2018-05-08T01:27:13.248Z,38.20
2018-05-08T01:29:41.468Z,38.20
2018-05-08T01:32:09.699Z,38.20
2018-05-08T01:34:38.023Z,38.20
2018-05-08T01:37:06.271Z,38.20
2018-05-08T01:39:34.479Z,38.30
2018-05-08T01:42:02.747Z,38.20
2018-05-08T01:44:30.969Z,38.30
2018-05-08T01:46:59.203Z,38.30
2018-05-08T01:49:27.421Z,38.30
2018-05-08T01:51:55.675Z,38.30
2018-05-08T01:54:24.399Z,38.30
2018-05-08T01:56:52.616Z,38.30
2018-05-08T01:59:20.855Z,38.30
2018-05-08T02:01:49.075Z,38.30
2018-05-08T02:04:17.314Z,38.30
2018-05-08T02:06:45.535Z,38.20
2018-05-08T02:09:13.772Z,38.30
2018-05-08T02:11:42.760Z,38.30
2018-05-08T02:14:11.763Z,38.30
2018-05-08T02:16:40.861Z,38.30
2018-05-08T02:19:09.101Z,38.30
2018-05-08T02:21:37.433Z,38.30
2018-05-08T02:24:05.664Z,38.30
2018-05-08T02:26:33.884Z,38.30
2018-05-08T02:29:02.127Z,38.30
2018-05-08T02:31:30.351Z,38.30
2018-05-08T02:33:58.703Z,38.30
2018-05-08T02:36:26.932Z,38.30
2018-05-08T02:38:55.255Z,38.30
2018-05-08T02:41:23.946Z,38.30
2018-05-08T02:43:52.178Z,38.30
2018-05-08T02:46:20.403Z,38.30
2018-05-08T02:48:48.640Z,38.30
2018-05-08T02:51:16.864Z,38.30
2018-05-08T02:53:45.099Z,38.30
2018-05-08T02:56:13.323Z,38.30
2018-05-08T02:58:41.556Z,38.30
2018-05-08T03:01:09.789Z,38.30
2018-05-08T03:03:38.124Z,38.30
2018-05-08T03:06:06.348Z,38.30
2018-05-08T03:08:34.564Z,38.30
2018-05-08T03:11:02.795Z,38.30
2018-05-08T03:13:31.332Z,38.30
2018-05-08T03:15:59.563Z,38.30
2018-05-08T03:18:27.950Z,38.30
2018-05-08T03:20:56.187Z,38.40
2018-05-08T03:23:25.080Z,38.40
2018-05-08T03:25:53.527Z,38.40
2018-05-08T03:28:21.898Z,38.40
2018-05-08T03:30:50.579Z,38.40
2018-05-08T03:33:18.803Z,38.40
2018-05-08T03:35:47.046Z,38.40
2018-05-08T03:38:15.262Z,38.40
2018-05-08T03:40:43.491Z,38.40
2018-05-08T03:43:11.867Z,38.40
2018-05-08T03:45:40.110Z,38.40
2018-05-08T03:48:08.333Z,38.30
2018-05-08T03:50:36.567Z,38.40
2018-05-08T03:53:04.779Z,38.30
2018-05-08T03:55:33.020Z,38.30
2018-05-08T03:58:01.240Z,38.40
2018-05-08T04:00:41.737Z,38.40
2018-05-08T04:03:21.802Z,38.40
2018-05-08T04:06:08.832Z,38.40
2018-05-08T04:08:37.063Z,38.40
2018-05-08T04:11:05.298Z,38.40
2018-05-08T04:13:33.516Z,38.40
2018-05-08T04:16:01.843Z,38.40
2018-05-08T04:18:29.970Z,38.40
2018-05-08T04:20:58.212Z,38.40
2018-05-08T04:23:26.432Z,38.40
2018-05-08T04:25:55.491Z,38.40
2018-05-08T04:28:23.712Z,38.40
2018-05-08T04:30:51.953Z,38.40
2018-05-08T04:33:20.176Z,38.40
2018-05-08T04:35:48.413Z,38.40
2018-05-08T04:38:16.636Z,38.40
2018-05-08T04:40:44.867Z,38.40
2018-05-08T04:43:13.092Z,38.40
2018-05-08T04:45:41.333Z,38.40
2018-05-08T04:48:09.546Z,38.40
2018-05-08T04:50:37.911Z,38.40
2018-05-08T04:53:06.136Z,38.40
2018-05-08T04:55:34.355Z,38.40
2018-05-08T04:58:02.595Z,38.40
2018-05-08T05:00:30.811Z,38.40
2018-05-08T05:02:59.049Z,38.40
2018-05-08T05:05:27.271Z,38.40
2018-05-08T05:07:55.640Z,39.00
2018-05-08T05:10:23.864Z,38.40
2018-05-08T05:12:52.091Z,38.40
2018-05-08T05:15:20.443Z,38.40
2018-05-08T05:17:48.678Z,38.40
2018-05-08T05:20:16.907Z,38.40
2018-05-08T05:22:45.148Z,38.40
2018-05-08T05:25:13.363Z,38.40
2018-05-08T05:27:41.600Z,38.40
2018-05-08T05:30:09.824Z,38.40
2018-05-08T05:32:38.063Z,38.40
2018-05-08T05:35:06.284Z,38.40
2018-05-08T05:37:34.537Z,38.40
2018-05-08T05:40:02.760Z,38.40
2018-05-08T05:42:31.087Z,38.40
2018-05-08T05:44:59.252Z,38.40
2018-05-08T05:47:28.255Z,38.50
2018-05-08T05:49:57.258Z,38.50
2018-05-08T05:52:25.833Z,38.40
2018-05-08T05:54:54.198Z,38.50
2018-05-08T05:57:22.708Z,38.40
2018-05-08T05:59:50.936Z,38.50
2018-05-08T06:02:19.172Z,38.50
2018-05-08T06:04:47.399Z,38.40
2018-05-08T06:07:15.627Z,38.40
2018-05-08T06:09:43.847Z,38.50
2018-05-08T06:12:12.095Z,38.40
2018-05-08T06:14:40.355Z,38.40
2018-05-08T06:17:08.593Z,38.50
2018-05-08T06:19:36.808Z,38.70
2018-05-08T06:22:05.052Z,39.20
2018-05-08T06:24:33.266Z,39.80
2018-05-08T06:27:01.502Z,39.80
2018-05-08T06:29:31.562Z,40.00
2018-05-08T06:31:59.804Z,40.40
2018-05-08T06:34:28.555Z,40.50
2018-05-08T06:36:56.791Z,41.80
2018-05-08T06:39:25.270Z,41.50
2018-05-08T06:41:53.447Z,41.70
2018-05-08T06:44:21.806Z,42.90
2018-05-08T06:46:50.112Z,42.60
2018-05-08T06:49:18.349Z,41.60
2018-05-08T06:51:46.571Z,41.90
2018-05-08T06:54:14.806Z,42.50
2018-05-08T06:56:43.019Z,42.50
2018-05-08T06:59:11.264Z,41.60
2018-05-08T07:01:39.478Z,42.90
2018-05-08T07:04:07.712Z,41.60
2018-05-08T07:06:35.922Z,42.40
2018-05-08T07:09:04.184Z,42.80
2018-05-08T07:11:32.367Z,42.30
2018-05-08T07:14:00.683Z,41.40
2018-05-08T07:16:29.111Z,41.30
2018-05-08T07:18:57.347Z,42.40
2018-05-08T07:21:25.627Z,42.00
2018-05-08T07:23:53.882Z,42.00
2018-05-08T07:26:22.106Z,41.90
2018-05-08T07:28:50.318Z,42.00
2018-05-08T07:31:18.561Z,42.30
2018-05-08T07:33:46.824Z,42.00
2018-05-08T07:36:15.076Z,43.00
2018-05-08T07:38:43.310Z,42.40
2018-05-08T07:41:11.551Z,42.90
2018-05-08T07:43:39.771Z,42.10
2018-05-08T07:46:08.099Z,42.50
2018-05-08T07:48:36.324Z,43.10
2018-05-08T07:51:05.563Z,42.10
2018-05-08T07:53:33.788Z,41.70
2018-05-08T07:56:02.005Z,42.60
2018-05-08T07:58:30.251Z,42.00
2018-05-08T08:00:58.490Z,41.90
2018-05-08T08:03:26.771Z,41.70
2018-05-08T08:05:55.512Z,41.90
2018-05-08T08:08:23.796Z,41.80
2018-05-08T08:10:52.179Z,41.80
2018-05-08T08:13:20.509Z,42.70
2018-05-08T08:15:49.031Z,42.90
2018-05-08T08:18:17.499Z,42.00
2018-05-08T08:20:45.787Z,41.90
2018-05-08T08:23:14.116Z,41.60
2018-05-08T08:25:42.326Z,41.50
2018-05-08T08:28:10.780Z,41.70
2018-05-08T08:30:39.159Z,42.50
2018-05-08T08:33:07.557Z,42.00
2018-05-08T08:35:35.795Z,41.80
2018-05-08T08:38:04.099Z,42.10
2018-05-08T08:40:32.678Z,42.40
2018-05-08T08:43:00.887Z,42.50
2018-05-08T08:45:29.437Z,42.10
2018-05-08T08:47:57.725Z,42.20
2018-05-08T08:50:25.926Z,42.10
2018-05-08T08:52:54.282Z,42.50
2018-05-08T08:55:22.636Z,42.60
2018-05-08T08:57:50.847Z,42.70
2018-05-08T09:00:19.095Z,43.50
2018-05-08T09:02:47.327Z,42.50
2018-05-08T09:05:15.606Z,42.40
2018-05-08T09:07:44.052Z,42.40
2018-05-08T09:10:12.267Z,42.00
2018-05-08T09:12:40.503Z,42.00
2018-05-08T09:15:08.723Z,42.30
2018-05-08T09:17:36.951Z,42.40
2018-05-08T09:20:05.167Z,42.30
2018-05-08T09:22:33.711Z,42.20
2018-05-08T09:25:01.953Z,42.10
2018-05-08T09:27:30.772Z,42.00
2018-05-08T09:29:59.070Z,42.20
2018-05-08T09:32:27.291Z,42.00
2018-05-08T09:34:55.526Z,42.00
2018-05-08T09:37:23.742Z,42.10
2018-05-08T09:39:51.975Z,41.70
2018-05-08T09:42:20.335Z,41.90
2018-05-08T09:44:48.570Z,42.00
2018-05-08T09:47:16.890Z,41.50
2018-05-08T09:49:45.266Z,41.70
2018-05-08T09:52:13.500Z,41.50
2018-05-08T09:54:41.750Z,41.40
2018-05-08T09:57:09.963Z,40.60
2018-05-08T09:59:38.204Z,40.70
2018-05-08T10:02:06.418Z,40.50
2018-05-08T10:04:36.093Z,39.50
2018-05-08T10:07:04.311Z,39.20
2018-05-08T10:09:36.695Z,37.30
2018-05-08T10:12:07.336Z,37.60
2018-05-08T10:14:35.552Z,37.30
2018-05-08T10:17:06.606Z,37.80
2018-05-08T10:19:40.515Z,37.30
2018-05-08T10:22:10.658Z,37.20
2018-05-08T10:24:39.059Z,36.90
2018-05-08T10:27:07.410Z,36.90
2018-05-08T10:29:38.350Z,37.10
2018-05-08T10:32:06.648Z,37.10
2018-05-08T10:34:40.919Z,36.40
2018-05-08T10:37:11.345Z,36.20
2018-05-08T10:39:39.565Z,36.70
2018-05-08T10:42:09.024Z,36.60
2018-05-08T10:44:37.496Z,36.60
2018-05-08T10:47:06.887Z,37.30
2018-05-08T10:49:36.486Z,37.10
2018-05-08T10:52:04.702Z,37.40
2018-05-08T10:54:32.917Z,40.10
2018-05-08T10:57:01.293Z,38.60
2018-05-08T10:59:31.928Z,38.50
2018-05-08T11:02:00.831Z,38.40
2018-05-08T11:04:29.271Z,37.90
2018-05-08T11:06:57.490Z,38.00
2018-05-08T11:09:25.715Z,37.90
2018-05-08T11:11:53.946Z,38.00
2018-05-08T11:14:22.186Z,38.40
2018-05-08T11:16:50.412Z,38.20
2018-05-08T11:19:19.642Z,38.20
2018-05-08T11:21:48.847Z,38.20
2018-05-08T11:24:17.207Z,38.20
2018-05-08T11:26:45.655Z,38.30
2018-05-08T11:29:13.832Z,38.00
2018-05-08T11:31:42.067Z,38.00
2018-05-08T11:34:10.382Z,37.80
2018-05-08T11:36:38.755Z,37.80
2018-05-08T11:39:07.154Z,37.10
2018-05-08T11:41:35.661Z,36.90
2018-05-08T11:44:04.030Z,36.70
2018-05-08T11:46:32.346Z,36.80
2018-05-08T11:49:00.787Z,36.80
2018-05-08T11:51:29.171Z,37.10
2018-05-08T11:53:57.642Z,37.10
2018-05-08T11:56:25.927Z,37.80
2018-05-08T11:58:54.252Z,36.60
2018-05-08T12:01:22.511Z,36.60
2018-05-08T12:03:50.940Z,36.70
2018-05-08T12:06:21.728Z,36.70
2018-05-08T12:08:50.171Z,36.60
2018-05-08T12:11:18.551Z,35.50
2018-05-08T12:13:46.766Z,36.00
2018-05-08T12:16:14.998Z,36.20
2018-05-08T12:18:43.283Z,36.10
2018-05-08T12:21:11.515Z,36.40
2018-05-08T12:23:39.802Z,35.70
2018-05-08T12:26:11.259Z,35.60
2018-05-08T12:28:39.598Z,35.50
2018-05-08T12:31:07.831Z,35.80
2018-05-08T12:33:36.259Z,35.00
2018-05-08T12:36:04.532Z,35.50
2018-05-08T12:38:32.699Z,36.10
2018-05-08T12:41:01.124Z,36.80
2018-05-08T12:43:29.619Z,37.00
2018-05-08T12:45:58.611Z,36.90
2018-05-08T12:48:26.887Z,36.90
2018-05-08T12:50:55.368Z,37.60
2018-05-08T12:53:23.628Z,37.10
2018-05-08T12:55:51.847Z,37.40
2018-05-08T12:58:20.075Z,37.30
2018-05-08T13:00:48.585Z,37.60
2018-05-08T13:03:16.863Z,38.00
2018-05-08T13:05:45.088Z,37.30
2018-05-08T13:08:13.302Z,37.10
2018-05-08T13:10:41.510Z,37.00
2018-05-08T13:13:09.767Z,38.10
2018-05-08T13:15:38.305Z,36.60
2018-05-08T13:18:06.536Z,36.00
2018-05-08T13:20:34.855Z,36.60
2018-05-08T13:23:03.247Z,35.80
2018-05-08T13:25:32.047Z,35.80
2018-05-08T13:28:00.342Z,35.90
2018-05-08T13:30:28.560Z,35.90
2018-05-08T13:32:56.875Z,35.80
2018-05-08T13:35:25.119Z,35.40
2018-05-08T13:37:53.351Z,36.10
2018-05-08T13:40:21.567Z,35.30
2018-05-08T13:42:49.800Z,35.70
2018-05-08T13:45:18.156Z,35.70
2018-05-08T13:47:46.415Z,35.70
2018-05-08T13:50:14.638Z,36.20
2018-05-08T13:52:42.978Z,35.80
2018-05-08T13:55:11.292Z,36.00
2018-05-08T13:57:39.527Z,35.90
2018-05-08T14:00:07.807Z,35.80
2018-05-08T14:02:36.048Z,36.20
2018-05-08T14:05:04.263Z,36.20
2018-05-08T14:07:33.248Z,36.30
2018-05-08T14:10:01.499Z,36.00
2018-05-08T14:12:30.004Z,36.00
2018-05-08T14:14:58.385Z,35.80
2018-05-08T14:17:26.755Z,35.60
2018-05-08T14:19:54.971Z,35.50
2018-05-08T14:22:23.412Z,35.90
2018-05-08T14:24:51.685Z,35.40
2018-05-08T14:27:19.988Z,35.80
2018-05-08T14:29:48.211Z,35.10
2018-05-08T14:32:16.439Z,34.90
2018-05-08T14:34:44.661Z,34.90
2018-05-08T14:37:13.178Z,35.10
2018-05-08T14:39:41.416Z,34.80
2018-05-08T14:42:09.627Z,37.50
2018-05-08T14:44:37.887Z,35.00
2018-05-08T14:47:06.103Z,35.90
2018-05-08T14:49:34.462Z,36.30
2018-05-08T14:52:02.831Z,35.20
2018-05-08T14:54:31.072Z,34.90
2018-05-08T14:56:59.579Z,35.00
2018-05-08T14:59:27.844Z,34.40
2018-05-08T15:01:56.035Z,33.90
2018-05-08T15:04:24.467Z,35.30
2018-05-08T15:06:52.772Z,34.80
2018-05-08T15:09:21.766Z,35.50
2018-05-08T15:11:50.778Z,33.70
2018-05-08T15:14:19.763Z,33.60
2018-05-08T15:16:48.055Z,33.60
2018-05-08T15:19:16.288Z,33.40
2018-05-08T15:21:44.633Z,33.50
2018-05-08T15:24:12.875Z,32.90
2018-05-08T15:26:41.092Z,33.10
2018-05-08T15:29:09.423Z,33.30
2018-05-08T15:31:37.715Z,33.60
2018-05-08T15:34:06.062Z,33.00
2018-05-08T15:36:35.159Z,33.70
2018-05-08T15:39:08.989Z,30.80
2018-05-08T15:41:37.376Z,30.70
2018-05-08T15:44:05.746Z,30.70
2018-05-08T15:46:34.469Z,30.50
2018-05-08T15:49:02.799Z,30.30
2018-05-08T15:51:31.140Z,30.90
2018-05-08T15:53:59.355Z,30.90
2018-05-08T15:56:27.591Z,30.70
2018-05-08T15:58:56.101Z,31.10
2018-05-08T16:01:24.361Z,30.50
2018-05-08T16:03:52.575Z,30.30
2018-05-08T16:06:20.825Z,31.30
2018-05-08T16:08:49.207Z,30.40
2018-05-08T16:11:17.571Z,32.20
2018-05-08T16:13:45.796Z,31.30
2018-05-08T16:16:14.057Z,31.00
2018-05-08T16:18:42.512Z,31.30
2018-05-08T16:21:10.771Z,31.50
2018-05-08T16:23:39.104Z,31.60
2018-05-08T16:26:07.336Z,31.70
2018-05-08T16:28:35.627Z,31.80
2018-05-08T16:31:03.978Z,31.90
2018-05-08T16:33:32.475Z,32.10
2018-05-08T16:36:00.735Z,32.10
2018-05-08T16:38:28.951Z,32.10
2018-05-08T16:40:57.184Z,32.00
2018-05-08T16:43:25.566Z,32.20
2018-05-08T16:45:53.924Z,32.20
2018-05-08T16:48:22.185Z,32.30
2018-05-08T16:50:50.683Z,32.50
2018-05-08T16:53:19.191Z,32.50
2018-05-08T16:55:47.438Z,32.70
2018-05-08T16:58:15.834Z,32.90
2018-05-08T17:00:44.055Z,32.90
2018-05-08T17:03:12.286Z,33.00
2018-05-08T17:05:40.683Z,33.10
2018-05-08T17:08:09.075Z,33.10
2018-05-08T17:10:37.362Z,33.10
2018-05-08T17:13:05.805Z,33.20
2018-05-08T17:15:34.712Z,33.30
2018-05-08T17:18:03.016Z,33.40
2018-05-08T17:20:31.267Z,33.50
2018-05-08T17:22:59.735Z,33.50
2018-05-08T17:25:27.957Z,33.60
2018-05-08T17:27:56.491Z,33.60
2018-05-08T17:30:24.708Z,33.80
2018-05-08T17:32:53.131Z,33.70
2018-05-08T17:35:21.347Z,33.90
2018-05-08T17:37:49.703Z,33.90
2018-05-08T17:40:17.943Z,34.00
2018-05-08T17:42:46.456Z,34.00
2018-05-08T17:45:14.675Z,34.10
2018-05-08T17:47:43.112Z,34.10
2018-05-08T17:50:11.495Z,34.10
2018-05-08T17:52:39.843Z,34.30
2018-05-08T17:55:08.348Z,34.30
2018-05-08T17:57:36.594Z,34.30
2018-05-08T18:00:05.025Z,34.40
2018-05-08T18:02:33.332Z,34.50
2018-05-08T18:05:01.567Z,34.60
2018-05-08T18:07:29.795Z,34.70
2018-05-08T18:09:58.032Z,34.70
2018-05-08T18:12:26.251Z,34.70
2018-05-08T18:14:54.762Z,34.90
2018-05-08T18:17:23.065Z,34.90
2018-05-08T18:19:51.214Z,35.00
2018-05-08T18:22:19.454Z,35.10
2018-05-08T18:24:47.967Z,35.10
2018-05-08T18:27:16.222Z,35.00
2018-05-08T18:29:44.726Z,35.00
2018-05-08T18:32:13.007Z,35.00
2018-05-08T18:34:41.388Z,35.00
2018-05-08T18:37:09.606Z,35.00
2018-05-08T18:39:37.847Z,35.00
2018-05-08T18:42:06.064Z,35.20
2018-05-08T18:44:36.837Z,35.20
2018-05-08T18:47:05.116Z,35.20
2018-05-08T18:49:33.552Z,35.30
2018-05-08T18:52:01.953Z,35.30
2018-05-08T18:54:30.950Z,35.40
2018-05-08T18:56:59.931Z,35.50
2018-05-08T18:59:28.261Z,35.50
2018-05-08T19:01:56.499Z,35.40
2018-05-08T19:04:24.711Z,35.50
2018-05-08T19:06:53.136Z,35.50
2018-05-08T19:09:21.505Z,35.60
2018-05-08T19:11:49.684Z,35.70
2018-05-08T19:14:17.995Z,35.70
2018-05-08T19:16:46.371Z,35.70
2018-05-08T19:19:20.331Z,35.70
2018-05-08T19:21:48.563Z,35.80
2018-05-08T19:24:22.524Z,35.90
2018-05-08T19:26:50.943Z,35.80
2018-05-08T19:29:24.819Z,36.00
2018-05-08T19:31:53.150Z,36.00
2018-05-08T19:34:21.474Z,36.10
2018-05-08T19:36:55.278Z,36.20
2018-05-08T19:39:23.503Z,36.10
2018-05-08T19:41:51.739Z,36.20
2018-05-08T19:44:20.023Z,36.20
2018-05-08T19:46:49.053Z,36.40
2018-05-08T19:49:17.343Z,36.40
2018-05-08T19:51:45.675Z,36.40
2018-05-08T19:54:14.035Z,36.40
2018-05-08T19:56:42.271Z,36.50
2018-05-08T19:59:10.491Z,36.50
2018-05-08T20:01:38.995Z,36.50
2018-05-08T20:04:07.211Z,36.50
2018-05-08T20:06:35.751Z,36.50
2018-05-08T20:09:03.968Z,36.70
2018-05-08T20:11:32.400Z,36.70
2018-05-08T20:14:00.787Z,36.80
2018-05-08T20:16:29.025Z,36.70
2018-05-08T20:18:57.241Z,36.90
2018-05-08T20:21:25.480Z,36.80
2018-05-08T20:23:53.790Z,36.80
2018-05-08T20:26:22.035Z,36.80
2018-05-08T20:28:50.548Z,36.90
2018-05-08T20:31:18.796Z,36.80
2018-05-08T20:33:47.028Z,36.90
2018-05-08T20:36:15.445Z,36.90
2018-05-08T20:38:44.347Z,37.00
2018-05-08T20:41:13.331Z,37.00
2018-05-08T20:43:42.303Z,37.00
2018-05-08T20:46:10.731Z,37.00
2018-05-08T20:48:38.995Z,37.00
2018-05-08T20:51:07.211Z,37.10
2018-05-08T20:53:35.460Z,37.20
2018-05-08T20:56:03.845Z,37.10
2018-05-08T20:58:32.207Z,37.80
2018-05-08T21:01:00.514Z,37.10
2018-05-08T21:03:28.763Z,37.20
2018-05-08T21:05:57.146Z,37.30
2018-05-08T21:08:25.523Z,37.40
2018-05-08T21:10:53.767Z,37.40
2018-05-08T21:13:21.999Z,37.30
2018-05-08T21:15:50.354Z,37.30
2018-05-08T21:18:18.591Z,37.40
2018-05-08T21:20:47.106Z,37.40
2018-05-08T21:23:15.346Z,37.40
2018-05-08T21:25:43.567Z,37.60
2018-05-08T21:28:17.545Z,37.50
2018-05-08T21:30:51.554Z,37.50
2018-05-08T21:33:19.858Z,37.50
2018-05-08T21:35:48.076Z,37.60
2018-05-08T21:38:16.311Z,37.70
2018-05-08T21:40:44.582Z,37.60
2018-05-08T21:43:13.571Z,37.70
2018-05-08T21:45:41.819Z,37.60
2018-05-08T21:48:10.055Z,37.70
2018-05-08T21:50:38.272Z,37.70
2018-05-08T21:53:06.507Z,37.70
2018-05-08T21:55:34.851Z,37.70
2018-05-08T21:58:03.232Z,38.30
2018-05-08T22:00:31.607Z,37.70
2018-05-08T22:02:59.974Z,37.80
2018-05-08T22:05:28.323Z,37.90
2018-05-08T22:07:56.511Z,37.80
2018-05-08T22:10:24.731Z,37.80
2018-05-08T22:12:53.190Z,37.90
2018-05-08T22:15:21.412Z,37.80
2018-05-08T22:17:49.947Z,38.00
2018-05-08T22:20:18.197Z,38.00
2018-05-08T22:22:46.440Z,38.10
2018-05-08T22:25:14.643Z,38.20
2018-05-08T22:27:42.891Z,38.20
2018-05-08T22:30:11.107Z,38.20
2018-05-08T22:32:39.322Z,38.20
2018-05-08T22:35:07.567Z,38.20
2018-05-08T22:37:35.919Z,38.20
2018-05-08T22:40:04.292Z,38.20
2018-05-08T22:42:32.510Z,38.20
2018-05-08T22:45:00.835Z,38.20
2018-05-08T22:47:29.127Z,38.20
2018-05-08T22:49:57.569Z,38.30
2018-05-08T22:52:26.018Z,38.20
2018-05-08T22:54:54.322Z,38.30
2018-05-08T22:57:22.544Z,38.30
2018-05-08T22:59:50.782Z,38.30
2018-05-08T23:02:19.091Z,38.30
2018-05-08T23:04:47.615Z,38.30
2018-05-08T23:07:15.847Z,38.40
2018-05-08T23:09:44.247Z,38.40
2018-05-08T23:12:12.646Z,38.40
2018-05-08T23:14:41.043Z,38.50
2018-05-08T23:17:09.302Z,38.50
2018-05-08T23:19:37.874Z,38.50
2018-05-08T23:22:06.095Z,38.50
2018-05-08T23:24:34.332Z,38.50
2018-05-08T23:27:02.555Z,38.40
2018-05-08T23:29:30.892Z,38.40
2018-05-08T23:31:59.107Z,38.50
2018-05-08T23:34:27.531Z,38.50
2018-05-08T23:36:56.255Z,38.50
2018-05-08T23:39:24.495Z,38.60
2018-05-08T23:41:52.707Z,38.50
2018-05-08T23:44:21.044Z,38.50
2018-05-08T23:46:49.291Z,38.60
2018-05-08T23:49:17.690Z,38.70
2018-05-08T23:51:45.907Z,38.60
2018-05-08T23:54:14.328Z,38.60
2018-05-08T23:56:42.807Z,38.60
2018-05-08T23:59:11.042Z,38.70
